createdAt,value
2019-03-22T00:02:13.966Z,17.32
2019-03-22T00:04:46.204Z,17.53
2019-03-22T00:07:20.715Z,17.90
2019-03-22T00:09:55.074Z,19.00
2019-03-22T00:12:29.135Z,18.27
2019-03-22T00:15:03.573Z,18.77
2019-03-22T00:17:36.387Z,17.60
2019-03-22T00:20:10.362Z,17.57
2019-03-22T00:22:44.081Z,17.80
2019-03-22T00:25:17.367Z,17.92
2019-03-22T00:27:51.209Z,18.07
2019-03-22T00:30:25.206Z,16.87
2019-03-22T00:32:59.330Z,18.37
2019-03-22T00:35:33.248Z,16.77
2019-03-22T00:38:08.166Z,18.17
2019-03-22T00:40:42.059Z,17.63
2019-03-22T00:43:16.474Z,17.13
2019-03-22T00:45:49.431Z,17.03
2019-03-22T00:48:24.958Z,17.27
2019-03-22T00:50:59.345Z,18.93
2019-03-22T00:53:33.263Z,17.00
2019-03-22T00:56:07.276Z,16.80
2019-03-22T00:58:41.446Z,16.00
2019-03-22T01:01:16.306Z,17.30
2019-03-22T01:03:48.451Z,17.33
2019-03-22T01:06:22.368Z,16.40
2019-03-22T01:08:54.335Z,16.03
2019-03-22T01:11:28.637Z,15.60
2019-03-22T01:14:02.486Z,17.62
2019-03-22T01:16:34.380Z,15.70
2019-03-22T01:19:08.191Z,17.23
2019-03-22T01:21:40.618Z,15.27
2019-03-22T01:24:13.503Z,15.43
2019-03-22T01:26:46.484Z,15.60
2019-03-22T01:29:18.771Z,16.02
2019-03-22T01:31:52.434Z,16.27
2019-03-22T01:34:24.348Z,16.70
2019-03-22T01:37:00.246Z,17.23
2019-03-22T01:39:33.767Z,18.37
2019-03-22T01:42:08.303Z,18.43
2019-03-22T01:44:41.579Z,17.93
2019-03-22T01:47:13.812Z,16.43
2019-03-22T01:49:47.539Z,20.23
2019-03-22T01:52:19.702Z,18.90
2019-03-22T01:54:51.681Z,19.40
2019-03-22T01:57:25.635Z,17.50
2019-03-22T01:59:57.849Z,18.10
2019-03-22T02:02:31.670Z,18.15
2019-03-22T02:05:03.840Z,18.77
2019-03-22T02:07:37.399Z,20.10
2019-03-22T02:10:10.366Z,18.60
2019-03-22T02:12:42.789Z,19.80
2019-03-22T02:15:17.331Z,17.33
2019-03-22T02:17:51.864Z,19.33
2019-03-22T02:20:24.631Z,19.33
2019-03-22T02:22:57.807Z,17.50
2019-03-22T02:25:30.796Z,18.33
2019-03-22T02:28:04.624Z,18.10
2019-03-22T02:30:39.340Z,17.23
2019-03-22T02:33:14.089Z,18.90
2019-03-22T02:35:46.775Z,18.40
2019-03-22T02:38:18.705Z,18.83
2019-03-22T02:40:52.571Z,18.60
2019-03-22T02:43:28.041Z,17.13
2019-03-22T02:46:01.863Z,18.67
2019-03-22T02:48:33.822Z,19.17
2019-03-22T02:51:07.906Z,18.37
2019-03-22T02:53:39.944Z,16.77
2019-03-22T02:56:13.047Z,17.53
2019-03-22T02:58:45.965Z,17.57
2019-03-22T03:01:19.828Z,18.48
2019-03-22T03:03:53.894Z,17.50
2019-03-22T03:06:28.286Z,16.70
2019-03-22T03:09:02.119Z,17.62
2019-03-22T03:11:35.308Z,19.50
2019-03-22T03:14:11.436Z,17.43
2019-03-22T03:16:44.361Z,15.97
2019-03-22T03:19:17.428Z,18.50
2019-03-22T03:21:50.965Z,16.17
2019-03-22T03:24:25.081Z,16.93
2019-03-22T03:26:57.901Z,17.73
2019-03-22T03:29:32.682Z,17.23
2019-03-22T03:32:06.944Z,17.03
2019-03-22T03:34:40.245Z,15.83
2019-03-22T03:37:13.080Z,17.07
2019-03-22T03:39:45.028Z,16.70
2019-03-22T03:42:19.193Z,17.70
2019-03-22T03:44:52.061Z,17.50
2019-03-22T03:47:27.261Z,16.93
2019-03-22T03:49:59.371Z,16.40
2019-03-22T03:52:34.115Z,17.70
2019-03-22T03:55:08.081Z,16.57
2019-03-22T03:57:40.229Z,18.60
2019-03-22T04:00:13.677Z,18.25
2019-03-22T04:02:46.612Z,17.77
2019-03-22T04:05:19.103Z,17.60
2019-03-22T04:07:51.563Z,18.07
2019-03-22T04:10:26.304Z,17.90
2019-03-22T04:13:02.822Z,17.92
2019-03-22T04:15:37.192Z,17.70
2019-03-22T04:18:11.207Z,17.27
2019-03-22T04:20:45.767Z,17.40
2019-03-22T04:23:19.182Z,18.20
2019-03-22T04:25:52.186Z,20.50
2019-03-22T04:28:25.123Z,24.13
2019-03-22T04:30:58.304Z,36.63
2019-03-22T04:33:31.267Z,39.00
2019-03-22T04:36:03.863Z,53.80
2019-03-22T04:38:36.419Z,59.17
2019-03-22T04:41:10.521Z,52.60
2019-03-22T04:43:45.723Z,38.50
2019-03-22T04:46:20.543Z,41.42
2019-03-22T04:48:53.379Z,37.20
2019-03-22T04:51:28.123Z,37.47
2019-03-22T04:54:06.475Z,34.77
2019-03-22T04:56:41.267Z,37.43
2019-03-22T04:59:19.400Z,38.40
2019-03-22T05:01:55.386Z,31.70
2019-03-22T05:04:30.936Z,31.63
2019-03-22T05:07:04.554Z,31.55
2019-03-22T05:09:38.014Z,33.70
2019-03-22T05:12:14.277Z,31.17
2019-03-22T05:14:48.597Z,26.57
2019-03-22T05:17:23.180Z,33.00
2019-03-22T05:19:58.213Z,35.50
2019-03-22T05:22:34.009Z,27.00
2019-03-22T05:25:09.229Z,27.87
2019-03-22T05:27:45.625Z,26.97
2019-03-22T05:31:16.645Z,27.17
2019-03-22T05:33:48.592Z,31.93
2019-03-22T05:36:23.680Z,27.93
2019-03-22T05:38:57.690Z,24.87
2019-03-22T05:41:32.373Z,25.27
2019-03-22T05:44:04.408Z,31.17
2019-03-22T05:46:38.213Z,29.17
2019-03-22T05:49:10.761Z,27.00
2019-03-22T05:51:43.630Z,32.67
2019-03-22T05:54:16.216Z,28.32
2019-03-22T05:56:49.717Z,31.10
2019-03-22T05:59:23.154Z,29.53
2019-03-22T06:01:56.963Z,30.17
2019-03-22T06:04:29.904Z,26.03
2019-03-22T06:07:04.017Z,24.70
2019-03-22T06:09:36.870Z,25.07
2019-03-22T06:12:09.735Z,24.80
2019-03-22T06:14:43.082Z,23.90
2019-03-22T06:17:15.839Z,19.83
2019-03-22T06:19:50.954Z,17.67
2019-03-22T06:22:22.895Z,17.93
2019-03-22T06:24:54.806Z,16.03
2019-03-22T06:27:27.934Z,16.53
2019-03-22T06:30:02.266Z,18.83
2019-03-22T06:32:36.168Z,21.10
2019-03-22T06:35:10.190Z,21.97
2019-03-22T06:37:46.399Z,23.73
2019-03-22T06:40:20.941Z,20.77
2019-03-22T06:42:54.691Z,15.43
2019-03-22T06:45:28.374Z,15.47
2019-03-22T06:48:01.553Z,16.10
2019-03-22T06:50:34.153Z,17.57
2019-03-22T06:53:07.395Z,15.50
2019-03-22T06:55:40.926Z,15.10
2019-03-22T06:58:13.065Z,15.20
2019-03-22T07:00:46.905Z,16.80
2019-03-22T07:03:18.855Z,13.90
2019-03-22T07:05:53.031Z,13.70
2019-03-22T07:08:25.195Z,12.73
2019-03-22T07:10:58.244Z,15.30
2019-03-22T07:13:31.134Z,13.80
2019-03-22T07:16:03.581Z,12.80
2019-03-22T07:18:36.535Z,14.63
2019-03-22T07:21:08.869Z,13.60
2019-03-22T07:23:41.252Z,12.50
2019-03-22T07:26:13.561Z,12.30
2019-03-22T07:28:47.084Z,12.83
2019-03-22T07:31:20.435Z,14.20
2019-03-22T07:33:54.931Z,13.60
2019-03-22T07:36:27.840Z,12.88
2019-03-22T07:39:01.222Z,12.20
2019-03-22T07:41:34.441Z,13.80
2019-03-22T07:44:07.728Z,12.27
2019-03-22T07:46:40.294Z,13.47
2019-03-22T07:49:14.170Z,13.20
2019-03-22T07:51:46.472Z,13.60
2019-03-22T07:54:21.030Z,13.23
2019-03-22T07:56:55.334Z,12.00
2019-03-22T07:59:29.921Z,12.70
2019-03-22T08:02:03.838Z,14.03
2019-03-22T08:04:37.253Z,13.63
2019-03-22T08:07:11.786Z,14.60
2019-03-22T08:09:45.432Z,14.50
2019-03-22T08:12:19.589Z,13.30
2019-03-22T08:14:52.651Z,13.30
2019-03-22T08:17:25.338Z,13.50
2019-03-22T08:19:58.522Z,13.23
2019-03-22T08:22:30.751Z,13.50
2019-03-22T08:25:04.783Z,14.23
2019-03-22T08:27:37.485Z,14.40
2019-03-22T08:30:10.440Z,13.30
2019-03-22T08:32:43.417Z,13.97
2019-03-22T08:35:16.355Z,14.77
2019-03-22T08:37:52.898Z,13.70
2019-03-22T08:40:25.361Z,13.13
2019-03-22T08:42:57.552Z,14.77
2019-03-22T08:45:31.398Z,13.07
2019-03-22T08:48:05.010Z,15.17
2019-03-22T08:50:37.456Z,14.37
2019-03-22T08:53:10.412Z,15.15
2019-03-22T08:55:43.627Z,15.07
2019-03-22T08:58:18.476Z,15.00
2019-03-22T09:00:57.283Z,14.17
2019-03-22T09:03:25.619Z,14.57
2019-03-22T09:05:59.103Z,13.40
2019-03-22T09:08:31.747Z,14.33
2019-03-22T09:11:04.130Z,14.93
2019-03-22T09:13:37.742Z,15.17
2019-03-22T09:16:10.593Z,16.07
2019-03-22T09:18:43.286Z,14.97
2019-03-22T09:21:16.601Z,15.75
2019-03-22T09:23:49.598Z,14.57
2019-03-22T09:26:23.324Z,16.00
2019-03-22T09:28:55.832Z,16.80
2019-03-22T09:31:29.675Z,17.87
2019-03-22T09:34:04.242Z,17.83
2019-03-22T09:36:39.783Z,18.70
2019-03-22T09:39:13.605Z,19.63
2019-03-22T09:41:46.666Z,16.80
2019-03-22T09:44:19.863Z,17.30
2019-03-22T09:46:53.825Z,19.27
2019-03-22T09:49:26.382Z,17.98
2019-03-22T09:51:58.776Z,16.23
2019-03-22T09:54:32.012Z,15.73
2019-03-22T09:57:04.348Z,14.00
2019-03-22T09:59:40.220Z,15.13
2019-03-22T10:02:14.849Z,14.00
2019-03-22T10:04:46.766Z,14.50
2019-03-22T10:07:19.879Z,16.30
2019-03-22T10:09:53.689Z,14.77
2019-03-22T10:12:26.891Z,14.10
2019-03-22T10:14:58.975Z,15.57
2019-03-22T10:17:31.277Z,14.00
2019-03-22T10:20:04.833Z,13.30
2019-03-22T10:22:37.962Z,14.23
2019-03-22T10:25:11.242Z,13.40
2019-03-22T10:27:44.022Z,13.43
2019-03-22T10:30:17.334Z,13.40
2019-03-22T10:32:50.329Z,12.47
2019-03-22T10:35:26.332Z,12.25
2019-03-22T10:38:00.769Z,13.63
2019-03-22T10:40:33.455Z,12.15
2019-03-22T10:43:06.996Z,12.17
2019-03-22T10:45:39.221Z,13.40
2019-03-22T10:48:14.352Z,13.90
2019-03-22T10:50:48.136Z,12.40
2019-03-22T10:53:20.090Z,10.45
2019-03-22T10:55:53.042Z,11.80
2019-03-22T10:58:26.196Z,11.27
2019-03-22T11:01:00.124Z,11.00
2019-03-22T11:03:32.355Z,11.80
2019-03-22T11:06:04.404Z,11.37
2019-03-22T11:08:37.167Z,12.00
2019-03-22T11:11:11.789Z,12.20
2019-03-22T11:13:46.162Z,12.33
2019-03-22T11:16:19.134Z,12.03
2019-03-22T11:18:51.093Z,12.73
2019-03-22T11:21:24.350Z,11.43
2019-03-22T11:23:56.266Z,11.03
2019-03-22T11:26:28.298Z,11.23
2019-03-22T11:29:00.705Z,11.70
2019-03-22T11:31:39.902Z,13.20
2019-03-22T11:34:08.448Z,12.10
2019-03-22T11:36:43.493Z,12.20
2019-03-22T11:39:17.467Z,12.33
2019-03-22T11:41:53.793Z,11.40
2019-03-22T11:44:28.302Z,11.90
2019-03-22T11:47:01.559Z,13.37
2019-03-22T11:49:36.430Z,12.07
2019-03-22T11:52:10.826Z,10.43
2019-03-22T11:54:45.291Z,10.07
2019-03-22T11:57:20.186Z,9.87
2019-03-22T11:59:53.133Z,11.37
2019-03-22T12:02:27.522Z,10.03
2019-03-22T12:05:02.043Z,9.87
2019-03-22T12:07:34.526Z,9.60
2019-03-22T12:10:10.037Z,10.57
2019-03-22T12:12:46.064Z,10.03
2019-03-22T12:15:20.374Z,8.70
2019-03-22T12:17:54.643Z,9.20
2019-03-22T12:20:29.352Z,9.70
2019-03-22T12:23:03.312Z,9.50
2019-03-22T12:25:37.592Z,9.70
2019-03-22T12:28:12.687Z,10.33
2019-03-22T12:30:49.177Z,10.20
2019-03-22T12:33:22.646Z,10.13
2019-03-22T12:36:00.743Z,10.30
2019-03-22T12:38:33.513Z,9.60
2019-03-22T12:41:07.656Z,10.10
2019-03-22T12:43:40.496Z,10.20
2019-03-22T12:46:13.600Z,11.70
2019-03-22T12:48:45.455Z,11.30
2019-03-22T12:51:19.565Z,11.35
2019-03-22T12:53:51.572Z,11.23
2019-03-22T12:56:25.632Z,12.77
2019-03-22T12:58:58.626Z,12.20
2019-03-22T13:01:31.730Z,12.77
2019-03-22T13:04:04.433Z,13.77
2019-03-22T13:06:37.697Z,12.83
2019-03-22T13:09:11.087Z,14.20
2019-03-22T13:11:45.107Z,13.60
2019-03-22T13:14:18.726Z,14.10
2019-03-22T13:16:53.644Z,13.13
2019-03-22T13:19:25.882Z,13.95
2019-03-22T13:21:58.683Z,13.73
2019-03-22T13:24:31.686Z,14.87
2019-03-22T13:27:03.631Z,14.40
2019-03-22T13:29:38.148Z,15.90
2019-03-22T13:32:11.251Z,16.87
2019-03-22T13:34:46.970Z,16.50
2019-03-22T13:37:21.484Z,15.72
2019-03-22T13:39:57.473Z,14.50
2019-03-22T13:42:31.874Z,14.90
2019-03-22T13:45:06.995Z,16.50
2019-03-22T13:47:40.821Z,14.60
2019-03-22T13:50:14.012Z,12.50
2019-03-22T13:52:48.433Z,15.00
2019-03-22T13:55:23.001Z,14.83
2019-03-22T13:57:55.965Z,13.67
2019-03-22T14:00:29.095Z,14.30
2019-03-22T14:03:03.002Z,14.87
2019-03-22T14:05:35.985Z,14.27
2019-03-22T14:08:09.297Z,15.13
2019-03-22T14:10:45.272Z,16.13
2019-03-22T14:13:20.007Z,15.33
2019-03-22T14:15:53.405Z,14.60
2019-03-22T14:18:26.209Z,16.30
2019-03-22T14:21:00.229Z,14.77
2019-03-22T14:23:36.666Z,13.90
2019-03-22T14:26:15.716Z,15.00
2019-03-22T14:28:55.752Z,15.47
2019-03-22T14:31:27.966Z,16.67
2019-03-22T14:34:00.056Z,17.50
2019-03-22T14:36:34.862Z,17.60
2019-03-22T14:39:10.634Z,14.98
2019-03-22T14:41:45.566Z,16.73
2019-03-22T14:44:25.296Z,15.60
2019-03-22T14:46:56.070Z,14.98
2019-03-22T14:49:29.390Z,15.60
2019-03-22T14:52:02.309Z,14.33
2019-03-22T14:54:46.734Z,16.20
2019-03-22T14:57:26.546Z,14.73
2019-03-22T15:00:16.920Z,14.57
2019-03-22T15:02:59.236Z,14.47
2019-03-22T15:05:33.932Z,13.73
2019-03-22T15:08:16.614Z,14.30
2019-03-22T15:17:44.042Z,14.20
2019-03-22T15:20:49.356Z,14.07
2019-03-22T15:24:03.002Z,13.30
2019-03-22T15:26:53.602Z,13.87
2019-03-22T15:30:06.566Z,13.35
2019-03-22T15:33:06.700Z,13.90
2019-03-22T15:36:09.685Z,14.67
2019-03-22T15:39:08.569Z,13.47
2019-03-22T15:41:54.779Z,15.43
2019-03-22T15:44:38.794Z,13.93
2019-03-22T15:47:19.605Z,15.27
2019-03-22T15:49:54.268Z,14.93
2019-03-22T15:52:30.689Z,14.97
2019-03-22T15:55:06.185Z,15.07
2019-03-22T15:57:43.958Z,15.05
2019-03-22T16:00:18.994Z,15.50
2019-03-22T16:02:52.490Z,16.40
2019-03-22T16:05:26.797Z,15.13
2019-03-22T16:08:01.484Z,15.93
2019-03-22T16:10:34.547Z,15.13
2019-03-22T16:13:07.652Z,14.83
2019-03-22T16:15:41.968Z,16.20
2019-03-22T16:18:16.555Z,13.70
2019-03-22T16:20:56.144Z,15.93
2019-03-22T16:23:27.661Z,14.50
2019-03-22T16:26:03.852Z,15.40
2019-03-22T16:28:39.806Z,14.90
2019-03-22T16:31:18.358Z,14.63
2019-03-22T16:33:54.967Z,16.60
2019-03-22T16:36:28.701Z,16.10
2019-03-22T16:39:04.888Z,14.75
2019-03-22T16:41:38.875Z,16.13
2019-03-22T16:44:10.907Z,14.80
2019-03-22T16:46:44.686Z,15.50
2019-03-22T16:49:16.815Z,15.07
2019-03-22T16:51:50.712Z,16.47
2019-03-22T16:54:22.858Z,15.33
2019-03-22T16:56:59.027Z,15.67
2019-03-22T16:59:32.486Z,17.00
2019-03-22T17:02:05.013Z,16.47
2019-03-22T17:04:38.894Z,15.97
2019-03-22T17:07:13.879Z,17.40
2019-03-22T17:09:46.622Z,16.80
2019-03-22T17:12:19.999Z,18.30
2019-03-22T17:14:54.660Z,17.63
2019-03-22T17:17:26.936Z,17.52
2019-03-22T17:19:59.140Z,19.60
2019-03-22T17:22:32.093Z,17.87
2019-03-22T17:25:05.241Z,19.20
2019-03-22T17:27:37.909Z,17.50
2019-03-22T17:30:11.569Z,18.48
2019-03-22T17:32:43.907Z,18.43
2019-03-22T17:35:16.781Z,18.73
2019-03-22T17:37:49.389Z,18.67
2019-03-22T17:40:23.134Z,19.80
2019-03-22T17:42:56.882Z,19.53
2019-03-22T17:45:29.556Z,19.20
2019-03-22T17:48:02.542Z,19.97
2019-03-22T17:50:34.992Z,19.50
2019-03-22T17:53:08.105Z,19.50
2019-03-22T17:55:41.292Z,21.33
2019-03-22T17:58:13.930Z,19.93
2019-03-22T18:00:47.676Z,18.70
2019-03-22T18:03:20.272Z,18.33
2019-03-22T18:05:53.155Z,17.20
2019-03-22T18:08:27.700Z,18.40
2019-03-22T18:11:00.362Z,18.77
2019-03-22T18:13:33.077Z,19.57
2019-03-22T18:16:05.054Z,18.00
2019-03-22T18:18:38.275Z,18.23
2019-03-22T18:21:11.293Z,18.40
2019-03-22T18:23:44.277Z,17.00
2019-03-22T18:26:18.387Z,18.00
2019-03-22T18:28:51.524Z,17.70
2019-03-22T18:31:26.355Z,17.23
2019-03-22T18:33:59.033Z,18.53
2019-03-22T18:36:33.052Z,17.57
2019-03-22T18:39:07.105Z,17.33
2019-03-22T18:41:41.270Z,17.50
2019-03-22T18:44:14.175Z,18.37
2019-03-22T18:46:46.247Z,18.27
2019-03-22T18:49:18.125Z,17.07
2019-03-22T18:51:50.461Z,17.77
2019-03-22T18:54:23.657Z,17.15
2019-03-22T18:56:58.503Z,17.53
2019-03-22T18:59:32.464Z,18.23
2019-03-22T19:02:05.373Z,17.87
2019-03-22T19:04:43.896Z,16.67
2019-03-22T19:07:11.357Z,18.00
2019-03-22T19:09:44.710Z,17.63
2019-03-22T19:12:17.557Z,19.63
2019-03-22T19:14:49.478Z,18.80
2019-03-22T19:17:23.549Z,19.15
2019-03-22T19:19:57.318Z,16.20
2019-03-22T19:22:34.683Z,18.70
2019-03-22T19:25:09.044Z,18.50
2019-03-22T19:27:42.702Z,18.97
2019-03-22T19:30:17.813Z,18.00
2019-03-22T19:32:51.274Z,17.30
2019-03-22T19:35:23.463Z,19.47
2019-03-22T19:37:57.172Z,17.20
2019-03-22T19:40:29.901Z,18.17
2019-03-22T19:43:02.402Z,17.67
2019-03-22T19:45:37.608Z,18.97
2019-03-22T19:48:11.776Z,18.20
2019-03-22T19:50:45.865Z,18.40
2019-03-22T19:53:20.715Z,16.95
2019-03-22T19:55:55.070Z,16.10
2019-03-22T19:58:29.674Z,18.20
2019-03-22T20:01:03.687Z,17.27
2019-03-22T20:03:37.834Z,17.60
2019-03-22T20:06:11.778Z,18.90
2019-03-22T20:08:47.687Z,16.67
2019-03-22T20:11:21.739Z,18.83
2019-03-22T20:13:54.894Z,18.57
2019-03-22T20:16:27.706Z,20.23
2019-03-22T20:18:59.707Z,19.50
2019-03-22T20:21:33.942Z,17.20
2019-03-22T20:24:08.636Z,17.00
2019-03-22T20:26:40.672Z,18.13
2019-03-22T20:29:15.882Z,15.97
2019-03-22T20:31:47.769Z,16.50
2019-03-22T20:34:20.782Z,17.07
2019-03-22T20:36:53.906Z,15.63
2019-03-22T20:39:26.705Z,14.77
2019-03-22T20:42:00.197Z,17.07
2019-03-22T20:44:34.218Z,16.43
2019-03-22T20:47:08.901Z,15.97
2019-03-22T20:49:41.800Z,15.93
2019-03-22T20:52:14.811Z,16.15
2019-03-22T20:54:48.118Z,16.50
2019-03-22T20:57:20.807Z,19.23
2019-03-22T20:59:53.486Z,20.40
2019-03-22T21:02:26.813Z,20.50
2019-03-22T21:04:58.944Z,18.63
2019-03-22T21:07:33.338Z,20.63
2019-03-22T21:10:05.854Z,21.10
2019-03-22T21:12:37.763Z,20.10
2019-03-22T21:15:23.561Z,20.90
2019-03-22T21:17:46.901Z,20.33
2019-03-22T21:20:21.030Z,20.10
2019-03-22T21:22:54.074Z,20.77
2019-03-22T21:25:26.950Z,20.67
2019-03-22T21:27:59.242Z,20.70
2019-03-22T21:30:31.870Z,19.83
2019-03-22T21:33:05.216Z,22.20
2019-03-22T21:35:39.053Z,22.57
2019-03-22T21:38:11.452Z,22.00
2019-03-22T21:40:44.473Z,20.97
2019-03-22T21:43:21.962Z,22.33
2019-03-22T21:45:53.782Z,23.60
2019-03-22T21:48:27.664Z,22.67
2019-03-22T21:51:02.804Z,23.80
2019-03-22T21:53:36.022Z,26.30
2019-03-22T21:56:08.172Z,24.63
2019-03-22T21:58:41.350Z,25.20
2019-03-22T22:01:14.109Z,24.40
2019-03-22T22:03:47.091Z,27.93
2019-03-22T22:06:20.347Z,27.77
2019-03-22T22:08:54.428Z,25.80
2019-03-22T22:11:29.055Z,25.52
2019-03-22T22:14:02.131Z,25.90
2019-03-22T22:16:36.228Z,23.70
2019-03-22T22:19:11.754Z,25.03
2019-03-22T22:21:46.060Z,25.03
2019-03-22T22:24:21.878Z,22.50
2019-03-22T22:26:54.209Z,24.40
2019-03-22T22:29:27.757Z,23.35
2019-03-22T22:31:59.678Z,23.00
2019-03-22T22:34:33.169Z,22.53
2019-03-22T22:37:05.161Z,23.10
2019-03-22T22:39:38.295Z,23.40
2019-03-22T22:42:11.302Z,22.17
2019-03-22T22:44:59.213Z,21.77
2019-03-22T22:47:36.267Z,21.50
2019-03-22T22:50:08.897Z,20.87
2019-03-22T22:52:41.666Z,22.00
2019-03-22T22:55:14.495Z,23.80
2019-03-22T22:57:49.320Z,21.73
2019-03-22T23:00:29.723Z,21.73
2019-03-22T23:03:02.322Z,21.63
2019-03-22T23:05:34.501Z,20.63
2019-03-22T23:08:08.401Z,21.63
2019-03-22T23:10:42.404Z,19.90
2019-03-22T23:13:14.311Z,20.30
2019-03-22T23:15:47.352Z,19.67
2019-03-22T23:18:19.429Z,18.42
2019-03-22T23:20:51.294Z,18.47
2019-03-22T23:23:23.461Z,20.02
2019-03-22T23:25:57.336Z,18.70
2019-03-22T23:28:29.777Z,17.37
2019-03-22T23:31:02.374Z,16.67
2019-03-22T23:33:36.401Z,17.30
2019-03-22T23:36:08.535Z,18.03
2019-03-22T23:38:42.501Z,15.80
2019-03-22T23:41:14.761Z,15.53
2019-03-22T23:43:48.545Z,18.00
2019-03-22T23:46:20.381Z,16.73
2019-03-22T23:48:53.590Z,16.10
2019-03-22T23:51:26.639Z,16.48
2019-03-22T23:54:00.778Z,15.35
2019-03-22T23:56:35.348Z,15.60
2019-03-22T23:59:08.516Z,14.53
